createdAt,value
2017-08-08T08:34:39.470Z,11.40
2017-08-08T08:40:00.535Z,10.87
2017-08-08T08:42:27.346Z,11.30
2017-08-08T08:44:54.253Z,11.13
2017-08-08T08:47:21.106Z,10.47
2017-08-08T08:49:47.988Z,9.73
2017-08-08T08:52:14.988Z,8.33
2017-08-08T08:54:41.853Z,8.80
2017-08-08T08:57:10.221Z,8.80
2017-08-08T08:59:37.186Z,9.50
2017-08-08T09:02:04.129Z,8.67
2017-08-08T09:04:31.101Z,8.10
2017-08-08T09:06:57.963Z,9.17
2017-08-08T09:09:24.805Z,8.53
2017-08-08T09:11:51.761Z,9.20
2017-08-08T09:14:18.650Z,8.30
2017-08-08T09:16:45.534Z,11.50
2017-08-08T09:19:12.410Z,7.80
2017-08-08T09:21:39.890Z,7.87
2017-08-08T09:24:06.743Z,7.30
2017-08-08T09:26:33.706Z,9.80
2017-08-08T09:29:00.548Z,8.07
2017-08-08T09:31:27.454Z,5.50
2017-08-08T09:33:54.248Z,6.70
2017-08-08T09:36:21.068Z,7.67
2017-08-08T09:38:47.861Z,5.80
2017-08-08T09:41:14.660Z,6.67
2017-08-08T09:43:41.548Z,5.93
2017-08-08T09:46:08.484Z,7.53
2017-08-08T09:48:35.383Z,4.60
2017-08-08T09:51:02.344Z,5.17
2017-08-08T09:53:29.120Z,6.63
2017-08-08T09:55:55.985Z,4.60
2017-08-08T09:58:28.096Z,4.70
2017-08-08T10:01:00.616Z,5.10
2017-08-08T10:03:27.701Z,4.77
2017-08-08T10:05:55.256Z,4.37
2017-08-08T10:08:23.101Z,6.57
2017-08-08T10:11:05.431Z,5.23
2017-08-08T10:13:32.390Z,4.37
2017-08-08T10:15:59.676Z,5.17
2017-08-08T10:18:27.396Z,4.00
2017-08-08T10:20:54.230Z,3.87
2017-08-08T10:23:21.056Z,3.50
2017-08-08T10:25:47.810Z,3.00
2017-08-08T10:28:18.277Z,4.67
2017-08-08T10:30:46.151Z,5.10
2017-08-08T10:33:14.120Z,8.97
2017-08-08T10:35:40.947Z,4.47
2017-08-08T10:38:08.220Z,3.90
2017-08-08T10:40:35.085Z,4.37
2017-08-08T10:43:01.879Z,4.20
2017-08-08T10:45:28.646Z,5.17
2017-08-08T10:47:55.456Z,4.80
2017-08-08T10:50:23.773Z,4.73
2017-08-08T10:52:50.648Z,6.37
2017-08-08T10:55:17.524Z,5.73
2017-08-08T10:57:44.393Z,4.80
2017-08-08T11:00:11.215Z,5.03
2017-08-08T11:02:37.972Z,4.93
2017-08-08T11:05:04.732Z,5.57
2017-08-08T11:07:31.613Z,4.80
2017-08-08T11:09:59.221Z,6.80
2017-08-08T11:12:26.397Z,6.80
2017-08-08T11:14:56.050Z,5.10
2017-08-08T11:17:24.017Z,6.10
2017-08-08T11:19:50.851Z,4.83
2017-08-08T11:22:17.729Z,5.17
2017-08-08T11:24:44.603Z,5.00
2017-08-08T11:27:12.575Z,8.73
2017-08-08T11:29:39.780Z,5.67
2017-08-08T11:32:06.636Z,7.63
2017-08-08T11:34:33.683Z,5.53
2017-08-08T11:37:00.601Z,6.00
2017-08-08T11:39:27.464Z,7.03
2017-08-08T11:41:54.262Z,6.20
2017-08-08T11:44:21.961Z,4.47
2017-08-08T11:46:48.788Z,6.23
2017-08-08T11:49:15.758Z,5.10
2017-08-08T11:51:42.662Z,5.90
2017-08-08T11:54:09.441Z,5.27
2017-08-08T11:56:36.472Z,4.73
2017-08-08T11:59:03.413Z,3.53
2017-08-08T12:01:30.832Z,4.07
2017-08-08T12:03:58.180Z,4.13
2017-08-08T12:06:25.092Z,5.97
2017-08-08T12:08:52.275Z,3.67
2017-08-08T12:11:19.605Z,3.33
2017-08-08T12:13:46.450Z,3.17
2017-08-08T12:16:13.468Z,3.13
2017-08-08T12:18:40.976Z,10.03
2017-08-08T12:21:08.306Z,5.17
2017-08-08T12:23:35.742Z,3.93
2017-08-08T12:26:03.187Z,5.07
2017-08-08T12:28:30.065Z,5.90
2017-08-08T12:30:57.272Z,7.23
2017-08-08T12:33:24.526Z,7.07
2017-08-08T12:35:51.434Z,8.57
2017-08-08T12:38:18.584Z,8.30
2017-08-08T12:40:45.372Z,10.50
2017-08-08T12:43:12.551Z,8.70
2017-08-08T12:45:39.544Z,8.33
2017-08-08T12:48:06.335Z,8.67
2017-08-08T12:50:33.272Z,7.87
2017-08-08T12:53:00.105Z,8.10
2017-08-08T12:55:28.159Z,9.03
2017-08-08T12:57:56.032Z,16.57
2017-08-08T13:00:23.718Z,10.47
2017-08-08T13:02:50.600Z,11.90
2017-08-08T13:05:18.790Z,10.83
2017-08-08T13:07:46.677Z,13.40
2017-08-08T13:10:16.366Z,12.10
2017-08-08T13:12:43.932Z,11.37
2017-08-08T13:15:11.122Z,12.33
2017-08-08T13:17:39.563Z,10.83
2017-08-08T13:20:06.758Z,10.50
2017-08-08T13:22:34.138Z,9.50
2017-08-08T13:25:01.510Z,13.27
2017-08-08T13:27:28.455Z,7.30
2017-08-08T13:29:55.655Z,4.80
2017-08-08T13:32:22.833Z,4.80
2017-08-08T13:34:49.682Z,4.03
2017-08-08T13:37:16.612Z,4.30
2017-08-08T13:39:43.766Z,4.20
2017-08-08T13:42:11.166Z,3.80
2017-08-08T13:44:37.974Z,3.13
2017-08-08T13:47:05.100Z,2.10
2017-08-08T13:49:32.364Z,2.70
2017-08-08T13:51:59.752Z,5.20
2017-08-08T13:54:26.688Z,4.30
2017-08-08T13:56:53.824Z,2.67
2017-08-08T13:59:21.672Z,2.73
2017-08-08T14:01:48.825Z,3.57
2017-08-08T14:04:15.709Z,2.87
2017-08-08T14:06:42.746Z,2.83
2017-08-08T14:09:09.900Z,3.10
2017-08-08T14:11:36.785Z,2.33
2017-08-08T14:14:03.684Z,2.73
2017-08-08T14:16:30.850Z,2.20
2017-08-08T14:18:58.186Z,2.43
2017-08-08T14:21:25.587Z,3.40
2017-08-08T14:23:52.368Z,2.90
2017-08-08T14:26:19.521Z,2.13
2017-08-08T14:28:46.307Z,2.57
2017-08-08T14:31:13.084Z,2.20
2017-08-08T14:33:40.550Z,2.13
2017-08-08T14:36:07.770Z,2.30
2017-08-08T14:38:35.151Z,3.13
2017-08-08T14:41:02.124Z,2.93
2017-08-08T14:43:28.958Z,3.03
2017-08-08T14:45:55.864Z,3.27
2017-08-08T14:48:22.690Z,3.67
2017-08-08T14:50:49.965Z,4.40
2017-08-08T14:53:16.967Z,3.93
2017-08-08T14:55:43.781Z,4.90
2017-08-08T14:58:10.620Z,5.37
2017-08-08T15:00:38.148Z,7.33
2017-08-08T15:03:05.143Z,5.13
2017-08-08T15:05:32.022Z,4.03
2017-08-08T15:07:59.300Z,3.90
2017-08-08T15:10:26.787Z,5.30
2017-08-08T15:12:53.685Z,6.20
2017-08-08T15:15:20.904Z,3.60
2017-08-08T15:17:48.488Z,4.50
2017-08-08T15:20:16.406Z,4.90
2017-08-08T15:22:44.151Z,4.33
2017-08-08T15:25:11.860Z,5.40
2017-08-08T15:27:38.698Z,4.47
2017-08-08T15:30:07.009Z,3.50
2017-08-08T15:32:34.476Z,8.10
2017-08-08T15:35:01.759Z,4.37
2017-08-08T15:37:28.591Z,4.03
2017-08-08T15:39:55.367Z,4.60
2017-08-08T15:42:22.723Z,3.73
2017-08-08T15:44:50.077Z,5.60
2017-08-08T15:47:16.840Z,3.60
2017-08-08T15:49:43.623Z,3.67
2017-08-08T15:52:10.464Z,2.43
2017-08-08T15:54:37.244Z,3.43
2017-08-08T15:57:04.029Z,2.57
2017-08-08T15:59:30.836Z,3.60
2017-08-08T16:01:58.063Z,3.60
2017-08-08T16:04:25.341Z,3.70
2017-08-08T16:06:52.196Z,2.67
2017-08-08T16:09:19.256Z,3.37
2017-08-08T16:11:46.461Z,2.20
2017-08-08T16:14:13.938Z,6.30
2017-08-08T16:16:40.866Z,4.00
2017-08-08T16:19:08.001Z,3.40
2017-08-08T16:21:35.284Z,3.20
2017-08-08T16:24:02.626Z,2.57
2017-08-08T16:26:29.475Z,3.00
2017-08-08T16:28:56.564Z,3.47
2017-08-08T16:31:23.380Z,3.43
2017-08-08T16:33:50.380Z,2.60
2017-08-08T16:36:17.545Z,2.80
2017-08-08T16:38:44.341Z,3.60
2017-08-08T16:41:11.291Z,7.43
2017-08-08T16:43:38.412Z,2.83
2017-08-08T16:46:05.728Z,3.37
2017-08-08T16:48:33.130Z,5.00
2017-08-08T16:51:00.485Z,5.23
2017-08-08T16:53:27.621Z,5.20
2017-08-08T16:55:54.471Z,4.73
2017-08-08T16:58:21.380Z,3.70
2017-08-08T17:00:48.433Z,4.77
2017-08-08T17:03:15.600Z,4.17
2017-08-08T17:05:44.018Z,4.03
2017-08-08T17:08:10.864Z,3.20
2017-08-08T17:10:37.702Z,3.37
2017-08-08T17:13:04.764Z,4.87
2017-08-08T17:15:31.868Z,5.03
2017-08-08T17:17:59.230Z,4.97
2017-08-08T17:20:26.704Z,7.40
2017-08-08T17:22:53.520Z,4.43
2017-08-08T17:25:21.314Z,4.90
2017-08-08T17:27:49.063Z,7.73
2017-08-08T17:30:16.184Z,6.60
2017-08-08T17:32:43.064Z,6.33
2017-08-08T17:35:10.131Z,6.73
2017-08-08T17:37:37.236Z,5.00
2017-08-08T17:40:04.416Z,7.57
2017-08-08T17:42:32.248Z,6.33
2017-08-08T17:44:59.164Z,10.13
2017-08-08T17:47:27.313Z,8.60
2017-08-08T17:49:55.352Z,6.03
2017-08-08T17:52:22.934Z,4.80
2017-08-08T17:54:50.410Z,10.50
2017-08-08T17:57:17.752Z,7.17
2017-08-08T17:59:44.745Z,9.67
2017-08-08T18:02:12.933Z,5.43
2017-08-08T18:04:39.900Z,5.87
2017-08-08T18:07:07.440Z,5.90
2017-08-08T18:09:34.605Z,7.03
2017-08-08T18:12:03.459Z,7.70
2017-08-08T18:14:30.291Z,7.07
2017-08-08T18:16:57.492Z,7.43
2017-08-08T18:19:24.650Z,8.77
2017-08-08T18:21:51.587Z,8.20
2017-08-08T18:24:19.915Z,9.80
2017-08-08T18:26:46.836Z,6.97
2017-08-08T18:29:14.642Z,8.67
2017-08-08T18:31:41.485Z,8.37
2017-08-08T18:34:08.523Z,10.60
2017-08-08T18:36:36.179Z,10.27
2017-08-08T18:39:03.142Z,9.60
2017-08-08T18:41:32.271Z,14.10
2017-08-08T18:43:59.949Z,9.60
2017-08-08T18:46:27.183Z,11.03
2017-08-08T18:48:54.991Z,11.27
2017-08-08T18:51:21.900Z,8.73
2017-08-08T18:53:49.219Z,10.30
2017-08-08T18:56:16.609Z,9.13
2017-08-08T18:58:45.184Z,9.40
2017-08-08T19:01:12.324Z,6.47
2017-08-08T19:03:41.030Z,6.77
2017-08-08T19:06:08.224Z,7.70
2017-08-08T19:08:35.302Z,9.07
2017-08-08T19:11:02.185Z,8.10
2017-08-08T19:13:32.688Z,6.80
2017-08-08T19:16:00.131Z,8.17
2017-08-08T19:18:27.438Z,10.27
2017-08-08T19:20:54.416Z,10.73
2017-08-08T19:23:21.722Z,7.67
2017-08-08T19:25:48.666Z,8.60
2017-08-08T19:28:15.925Z,9.27
2017-08-08T19:30:42.777Z,10.60
2017-08-08T19:33:09.921Z,9.30
2017-08-08T19:35:37.078Z,12.90
2017-08-08T19:38:03.927Z,8.73
2017-08-08T19:40:31.027Z,8.93
2017-08-08T19:42:58.208Z,10.83
2017-08-08T19:45:25.465Z,12.40
2017-08-08T19:47:52.841Z,8.37
2017-08-08T19:50:19.634Z,12.03
2017-08-08T19:52:46.907Z,10.20
2017-08-08T19:55:14.184Z,9.90
2017-08-08T19:57:41.544Z,10.03
2017-08-08T20:00:08.510Z,14.40
2017-08-08T20:02:35.280Z,11.77
2017-08-08T20:05:02.632Z,9.10
2017-08-08T20:07:30.252Z,10.97
2017-08-08T20:09:57.130Z,11.13
2017-08-08T20:12:24.328Z,12.90
2017-08-08T20:14:51.204Z,13.07
2017-08-08T20:17:18.120Z,11.07
2017-08-08T20:19:45.211Z,14.37
2017-08-08T20:22:12.487Z,11.60
2017-08-08T20:24:39.258Z,12.57
2017-08-08T20:27:06.030Z,11.80
2017-08-08T20:29:33.359Z,15.20
2017-08-08T20:32:00.840Z,15.13
2017-08-08T20:34:28.501Z,12.83
2017-08-08T20:36:56.063Z,18.40
2017-08-08T20:39:23.309Z,11.23
2017-08-08T20:41:50.381Z,12.10
2017-08-08T20:44:17.733Z,11.50
2017-08-08T20:46:45.057Z,13.70
2017-08-08T20:49:12.439Z,17.10
2017-08-08T20:51:39.307Z,18.20
2017-08-08T20:54:10.295Z,19.00
2017-08-08T20:56:37.153Z,11.97
2017-08-08T20:59:04.173Z,14.97
2017-08-08T21:01:31.457Z,13.47
2017-08-08T21:03:58.246Z,12.40
2017-08-08T21:06:25.192Z,11.83
2017-08-08T21:08:52.504Z,11.27
2017-08-08T21:11:19.865Z,10.40
2017-08-08T21:13:47.061Z,9.10
2017-08-08T21:16:14.122Z,11.27
2017-08-08T21:18:41.313Z,7.43
2017-08-08T21:21:08.590Z,9.47
2017-08-08T21:23:35.397Z,9.57
2017-08-08T21:26:02.437Z,8.67
2017-08-08T21:28:29.283Z,7.43
2017-08-08T21:30:56.681Z,9.97
2017-08-08T21:33:23.531Z,7.43
2017-08-08T21:35:50.914Z,7.70
2017-08-08T21:38:18.092Z,10.67
2017-08-08T21:40:44.980Z,12.13
2017-08-08T21:43:12.108Z,9.03
2017-08-08T21:45:39.377Z,12.07
2017-08-08T21:48:06.624Z,9.10
2017-08-08T21:50:34.119Z,11.00
2017-08-08T21:53:01.672Z,10.20
2017-08-08T21:55:28.519Z,11.90
2017-08-08T21:57:55.716Z,9.23
2017-08-08T22:00:23.037Z,10.50
2017-08-08T22:02:50.594Z,10.50
2017-08-08T22:05:19.230Z,9.50
2017-08-08T22:07:46.951Z,9.17
2017-08-08T22:10:14.693Z,7.27
2017-08-08T22:12:41.816Z,10.30
2017-08-08T22:15:09.660Z,7.63
2017-08-08T22:17:37.220Z,8.80
2017-08-08T22:20:03.995Z,7.77
2017-08-08T22:22:30.910Z,7.93
2017-08-08T22:24:58.518Z,5.73
2017-08-08T22:27:25.284Z,6.20
2017-08-08T22:29:52.048Z,7.77
2017-08-08T22:32:19.261Z,4.17
2017-08-08T22:34:46.500Z,4.93
2017-08-08T22:37:13.825Z,3.80
2017-08-08T22:39:40.752Z,4.50
2017-08-08T22:42:07.792Z,5.93
2017-08-08T22:44:34.656Z,1.97
2017-08-08T22:47:02.066Z,1.77
2017-08-08T22:49:29.024Z,1.70
2017-08-08T22:51:56.232Z,1.90
2017-08-08T22:54:23.618Z,3.17
2017-08-08T22:56:50.482Z,2.10
2017-08-08T22:59:17.476Z,1.80
2017-08-08T23:01:44.650Z,1.50
2017-08-08T23:04:11.809Z,1.50
2017-08-08T23:06:38.695Z,7.00
2017-08-08T23:09:06.337Z,1.77
2017-08-08T23:11:34.279Z,1.50
2017-08-08T23:14:03.879Z,1.23
2017-08-08T23:16:31.098Z,2.57
2017-08-08T23:18:58.944Z,1.30
2017-08-08T23:21:25.745Z,1.77
2017-08-08T23:23:52.612Z,1.60
2017-08-08T23:26:19.775Z,1.20
2017-08-08T23:28:47.006Z,1.50
2017-08-08T23:31:14.362Z,1.33
2017-08-08T23:33:41.654Z,1.47
2017-08-08T23:36:08.722Z,1.50
2017-08-08T23:38:35.563Z,1.47
2017-08-08T23:41:02.427Z,1.40
2017-08-08T23:43:29.576Z,1.50
2017-08-08T23:45:56.954Z,2.40
2017-08-08T23:48:24.255Z,2.07
2017-08-08T23:50:51.671Z,1.53
2017-08-08T23:53:19.227Z,1.77
2017-08-08T23:55:46.208Z,2.90
2017-08-08T23:58:13.053Z,1.30
